createdAt,value
2022-10-14T00:00:26.034Z,96751.78
2022-10-14T00:02:53.700Z,96747.22
2022-10-14T00:05:21.382Z,96751.31
2022-10-14T00:07:49.048Z,96750.94
2022-10-14T00:10:16.962Z,96752.84
2022-10-14T00:12:47.381Z,96726.28
2022-10-14T00:15:15.424Z,96738.34
2022-10-14T00:17:43.093Z,96750.25
2022-10-14T00:20:11.448Z,96739.47
2022-10-14T00:22:39.261Z,96749.00
2022-10-14T00:25:07.311Z,96739.78
2022-10-14T00:27:35.018Z,96742.25
2022-10-14T00:30:04.361Z,96743.22
2022-10-14T00:32:32.077Z,96748.19
2022-10-14T00:34:59.735Z,96743.53
2022-10-14T00:37:27.470Z,96741.25
2022-10-14T00:39:57.172Z,96741.25
2022-10-14T00:42:24.998Z,96754.91
2022-10-14T00:45:15.123Z,96744.38
2022-10-14T00:47:44.879Z,96745.34
2022-10-14T00:50:13.689Z,96751.53
2022-10-14T00:52:41.884Z,96759.91
2022-10-14T00:55:15.152Z,96742.19
2022-10-14T00:57:43.446Z,96747.28
2022-10-14T01:00:15.665Z,96750.44
2022-10-14T01:02:43.868Z,96745.44
2022-10-14T01:05:14.005Z,96750.47
2022-10-14T01:07:49.621Z,96745.72
2022-10-14T01:10:25.655Z,96745.72
2022-10-14T01:13:03.761Z,96741.78
2022-10-14T01:15:39.784Z,96742.00
2022-10-14T01:18:21.093Z,96737.81
2022-10-14T01:21:04.233Z,96707.28
2022-10-14T01:23:44.064Z,96734.63
2022-10-14T01:26:28.006Z,96740.38
2022-10-14T01:29:06.584Z,96734.84
2022-10-14T01:31:41.154Z,96733.53
2022-10-14T01:34:14.642Z,96734.03
2022-10-14T01:36:48.070Z,96730.09
2022-10-14T01:39:21.231Z,96729.63
2022-10-14T01:41:54.278Z,96731.63
2022-10-14T01:44:25.152Z,96725.50
2022-10-14T01:46:56.287Z,96730.75
2022-10-14T01:49:28.309Z,96716.53
2022-10-14T01:51:58.778Z,96714.28
2022-10-14T01:54:32.031Z,96711.53
2022-10-14T01:57:03.264Z,96707.69
2022-10-14T01:59:32.873Z,96709.59
2022-10-14T02:02:02.198Z,96714.34
2022-10-14T02:04:30.012Z,96712.97
2022-10-14T02:07:14.299Z,96718.19
2022-10-14T02:09:49.956Z,96710.03
2022-10-14T02:12:29.988Z,96701.13
2022-10-14T02:15:10.365Z,96696.81
2022-10-14T02:17:49.850Z,96702.41
2022-10-14T02:20:23.989Z,96691.91
2022-10-14T02:22:59.606Z,96689.97
2022-10-14T02:25:32.126Z,96688.56
2022-10-14T02:28:01.764Z,96691.00
2022-10-14T02:30:31.880Z,96693.59
2022-10-14T02:33:02.285Z,96688.91
2022-10-14T02:35:32.375Z,96685.03
2022-10-14T02:38:00.861Z,96661.75
2022-10-14T02:40:35.144Z,96684.00
2022-10-14T02:43:02.899Z,96678.72
2022-10-14T02:45:30.844Z,96672.34
2022-10-14T02:47:58.514Z,96672.34
2022-10-14T02:50:27.952Z,96665.81
2022-10-14T02:52:55.644Z,96670.03
2022-10-14T02:55:23.393Z,96667.38
2022-10-14T02:57:51.088Z,96665.91
2022-10-14T03:00:19.086Z,96637.19
2022-10-14T03:02:47.057Z,96670.13
2022-10-14T03:05:17.680Z,96666.66
2022-10-14T03:07:46.706Z,96666.91
2022-10-14T03:10:32.999Z,96643.84
2022-10-14T03:13:01.001Z,96666.50
2022-10-14T03:15:28.916Z,96659.19
2022-10-14T03:17:56.795Z,96634.50
2022-10-14T03:20:24.579Z,96650.81
2022-10-14T03:22:53.582Z,96649.84
2022-10-14T03:25:21.281Z,96651.38
2022-10-14T03:27:48.948Z,96654.06
2022-10-14T03:30:17.124Z,96647.06
2022-10-14T03:32:44.858Z,96644.94
2022-10-14T03:35:12.635Z,96629.94
2022-10-14T03:37:40.366Z,96641.25
2022-10-14T03:40:10.763Z,96638.09
2022-10-14T03:42:38.455Z,96635.41
2022-10-14T03:45:08.366Z,96633.47
2022-10-14T03:47:36.143Z,96628.31
2022-10-14T03:50:04.996Z,96636.38
2022-10-14T03:52:33.201Z,96623.69
2022-10-14T03:55:01.029Z,96625.97
2022-10-14T03:57:30.420Z,96633.78
2022-10-14T03:59:58.108Z,96631.34
2022-10-14T04:02:25.752Z,96628.22
2022-10-14T04:04:57.068Z,96619.63
2022-10-14T04:07:28.023Z,96621.00
2022-10-14T04:09:56.155Z,96621.78
2022-10-14T04:12:24.077Z,96617.72
2022-10-14T04:14:56.666Z,96621.09
2022-10-14T04:17:24.664Z,96625.06
2022-10-14T04:19:52.999Z,96615.97
2022-10-14T04:22:23.135Z,96605.03
2022-10-14T04:24:51.470Z,96610.94
2022-10-14T04:27:19.862Z,96609.97
2022-10-14T04:29:47.504Z,96607.41
2022-10-14T04:32:16.626Z,96605.28
2022-10-14T04:34:44.308Z,96599.44
2022-10-14T04:37:12.061Z,96604.81
2022-10-14T04:39:39.771Z,96599.53
2022-10-14T04:42:07.467Z,96602.75
2022-10-14T04:44:35.137Z,96598.66
2022-10-14T04:47:02.865Z,96590.03
2022-10-14T04:49:31.950Z,96581.28
2022-10-14T04:51:59.644Z,96575.91
2022-10-14T04:54:27.915Z,96577.22
2022-10-14T04:56:55.601Z,96566.81
2022-10-14T04:59:23.606Z,96550.41
2022-10-14T05:01:51.405Z,96560.22
2022-10-14T05:04:19.128Z,96567.63
2022-10-14T05:06:48.529Z,96561.13
2022-10-14T05:09:16.441Z,96564.41
2022-10-14T05:11:44.215Z,96551.53
2022-10-14T05:14:11.868Z,96543.91
2022-10-14T05:16:39.556Z,96545.69
2022-10-14T05:19:07.260Z,96548.47
2022-10-14T05:21:34.943Z,96546.00
2022-10-14T05:24:03.961Z,96541.16
2022-10-14T05:26:31.680Z,96535.53
2022-10-14T05:28:59.433Z,96531.72
2022-10-14T05:31:27.213Z,96519.84
2022-10-14T05:33:54.877Z,96520.06
2022-10-14T05:36:22.537Z,96519.28
2022-10-14T05:38:50.678Z,96514.38
2022-10-14T05:41:19.703Z,96522.53
2022-10-14T05:43:47.416Z,96527.78
2022-10-14T05:46:15.091Z,96523.59
2022-10-14T05:48:42.768Z,96518.06
2022-10-14T05:51:10.622Z,96501.53
2022-10-14T05:53:39.834Z,96522.94
2022-10-14T05:56:10.142Z,96518.38
2022-10-14T05:58:39.277Z,96522.78
2022-10-14T06:01:09.391Z,96513.09
2022-10-14T06:03:37.095Z,96524.41
2022-10-14T06:06:04.868Z,96521.16
2022-10-14T06:08:32.665Z,96533.00
2022-10-14T06:11:04.274Z,96529.28
2022-10-14T06:13:31.998Z,96531.00
2022-10-14T06:16:05.703Z,96527.16
2022-10-14T06:18:33.524Z,96528.94
2022-10-14T06:21:01.389Z,96522.53
2022-10-14T06:23:29.535Z,96522.13
2022-10-14T06:25:57.376Z,96518.56
2022-10-14T06:28:25.168Z,96515.38
2022-10-14T06:30:53.454Z,96519.50
2022-10-14T06:33:23.195Z,96515.13
2022-10-14T06:35:50.898Z,96518.97
2022-10-14T06:38:18.600Z,96528.69
2022-10-14T06:40:46.307Z,96518.84
2022-10-14T06:43:13.956Z,96510.84
2022-10-14T06:45:41.642Z,96511.50
2022-10-14T06:48:09.299Z,96511.50
2022-10-14T06:50:38.311Z,96513.13
2022-10-14T06:53:06.227Z,96514.44
2022-10-14T06:55:34.020Z,96512.97
2022-10-14T06:58:01.767Z,96510.31
2022-10-14T07:00:31.179Z,96514.59
2022-10-14T07:02:59.317Z,96520.03
2022-10-14T07:05:27.469Z,96510.84
2022-10-14T07:07:58.434Z,96528.09
2022-10-14T07:10:26.198Z,96522.66
2022-10-14T07:12:55.016Z,96530.16
2022-10-14T07:15:22.812Z,96535.41
2022-10-14T07:17:50.504Z,96540.47
2022-10-14T07:20:18.228Z,96542.00
2022-10-14T07:22:45.965Z,96535.59
2022-10-14T07:25:15.011Z,96533.38
2022-10-14T07:27:42.786Z,96537.50
2022-10-14T07:30:13.889Z,96540.75
2022-10-14T07:32:45.309Z,96537.88
2022-10-14T07:35:12.995Z,96547.25
2022-10-14T07:37:40.680Z,96541.69
2022-10-14T07:40:09.817Z,96545.88
2022-10-14T07:42:39.303Z,96545.13
2022-10-14T07:45:08.552Z,96551.38
2022-10-14T07:47:36.483Z,96564.44
2022-10-14T07:50:04.431Z,96569.75
2022-10-14T07:52:32.131Z,96567.50
2022-10-14T07:54:59.796Z,96575.00
2022-10-14T07:57:28.780Z,96576.13
2022-10-14T07:59:57.847Z,96573.88
2022-10-14T08:02:25.621Z,96577.38
2022-10-14T08:05:04.028Z,96579.63
2022-10-14T08:07:41.033Z,96588.31
2022-10-14T08:10:08.987Z,96578.09
2022-10-14T08:12:36.998Z,96577.13
2022-10-14T08:15:07.011Z,96575.63
2022-10-14T08:17:34.703Z,96574.31
2022-10-14T08:20:02.403Z,96574.56
2022-10-14T08:22:30.143Z,96570.72
2022-10-14T08:24:57.900Z,96567.09
2022-10-14T08:27:26.651Z,96572.47
2022-10-14T08:29:55.282Z,96569.03
2022-10-14T08:32:24.769Z,96573.09
2022-10-14T08:34:52.689Z,96563.94
2022-10-14T08:37:20.371Z,96569.19
2022-10-14T08:39:48.459Z,96565.06
2022-10-14T08:42:31.007Z,96539.13
2022-10-14T08:45:08.079Z,96560.28
2022-10-14T08:47:40.891Z,96538.72
2022-10-14T08:50:23.046Z,96542.03
2022-10-14T08:52:56.616Z,96540.28
2022-10-14T08:55:38.354Z,96547.06
2022-10-14T08:58:13.034Z,96533.53
2022-10-14T09:00:43.109Z,96553.53
2022-10-14T09:03:21.529Z,96547.13
2022-10-14T09:05:57.111Z,96548.56
2022-10-14T09:08:30.827Z,96544.84
2022-10-14T09:10:59.545Z,96552.19
2022-10-14T09:13:32.011Z,96550.69
2022-10-14T09:16:04.494Z,96541.03
2022-10-14T09:18:38.187Z,96540.88
2022-10-14T09:21:47.942Z,96535.50
2022-10-14T09:24:16.662Z,96541.50
2022-10-14T09:26:46.689Z,96538.25
2022-10-14T09:29:24.980Z,96532.16
2022-10-14T09:31:53.147Z,96528.34
2022-10-14T09:34:30.368Z,96535.44
2022-10-14T09:37:06.283Z,96534.09
2022-10-14T09:39:39.194Z,96530.63
2022-10-14T09:42:15.490Z,96534.44
2022-10-14T09:44:43.222Z,96532.28
2022-10-14T09:47:18.782Z,96528.81
2022-10-14T09:49:49.340Z,96530.72
2022-10-14T09:52:23.455Z,96517.22
2022-10-14T09:54:55.485Z,96526.41
2022-10-14T09:57:23.448Z,96512.31
2022-10-14T09:59:55.173Z,96519.38
2022-10-14T10:02:25.816Z,96516.94
2022-10-14T10:04:57.403Z,96512.59
2022-10-14T10:07:30.232Z,96493.69
2022-10-14T10:09:59.152Z,96504.22
2022-10-14T10:12:31.498Z,96509.38
2022-10-14T10:15:03.535Z,96502.34
2022-10-14T10:17:32.640Z,96505.00
2022-10-14T10:20:23.725Z,96499.31
2022-10-14T10:22:51.603Z,96488.78
2022-10-14T10:25:27.957Z,96484.66
2022-10-14T10:27:59.239Z,96487.84
2022-10-14T10:30:29.273Z,96495.72
2022-10-14T10:33:23.269Z,96499.63
2022-10-14T10:36:06.512Z,96493.25
2022-10-14T10:38:40.510Z,96497.13
2022-10-14T10:41:19.994Z,96487.81
2022-10-14T10:44:12.005Z,96471.78
2022-10-14T10:47:13.519Z,96474.38
2022-10-14T10:50:00.598Z,96480.09
2022-10-14T10:52:41.200Z,96486.78
2022-10-14T10:55:19.176Z,96472.31
2022-10-14T10:58:02.634Z,96478.44
2022-10-14T11:00:39.166Z,96479.69
2022-10-14T11:03:23.056Z,96470.72
2022-10-14T11:05:59.507Z,96473.44
2022-10-14T11:09:05.028Z,96464.53
2022-10-14T11:11:58.775Z,96463.56
2022-10-14T11:14:46.279Z,96463.25
2022-10-14T11:17:22.672Z,96452.84
2022-10-14T11:19:55.309Z,96450.91
2022-10-14T11:22:40.081Z,96452.28
2022-10-14T11:25:22.654Z,96452.88
2022-10-14T11:27:57.192Z,96452.88
2022-10-14T11:30:37.998Z,96415.34
2022-10-14T11:33:23.547Z,96453.97
2022-10-14T11:35:59.429Z,96452.91
2022-10-14T11:38:43.721Z,96453.22
2022-10-14T11:41:26.264Z,96448.84
2022-10-14T11:44:02.184Z,96444.28
2022-10-14T11:46:36.387Z,96435.66
2022-10-14T11:49:14.631Z,96433.47
2022-10-14T11:51:50.160Z,96436.22
2022-10-14T11:54:23.785Z,96431.63
2022-10-14T11:56:58.790Z,96426.22
2022-10-14T11:59:37.673Z,96422.69
2022-10-14T12:02:21.319Z,96412.38
2022-10-14T12:04:54.734Z,96408.59
2022-10-14T12:07:28.761Z,96412.06
2022-10-14T12:10:01.012Z,96420.41
2022-10-14T12:12:31.826Z,96418.72
2022-10-14T12:15:02.530Z,96401.84
2022-10-14T12:17:35.270Z,96419.31
2022-10-14T12:20:08.447Z,96413.44
2022-10-14T12:22:36.806Z,96406.34
2022-10-14T12:25:11.295Z,96406.25
2022-10-14T12:27:41.073Z,96407.94
2022-10-14T12:30:33.029Z,96402.00
2022-10-14T12:33:02.437Z,96403.63
2022-10-14T12:35:54.429Z,96395.75
2022-10-14T12:38:22.741Z,96393.38
2022-10-14T12:40:50.981Z,96397.16
2022-10-14T12:43:26.528Z,96393.84
2022-10-14T12:46:12.559Z,96383.53
2022-10-14T12:48:48.257Z,96377.69
2022-10-14T12:51:20.454Z,96377.16
2022-10-14T12:54:04.923Z,96379.88
2022-10-14T12:56:36.258Z,96359.38
2022-10-14T12:59:07.951Z,96371.22
2022-10-14T13:01:36.932Z,96370.19
2022-10-14T13:04:08.112Z,96360.81
2022-10-14T13:06:40.920Z,96357.34
2022-10-14T13:09:41.727Z,96338.44
2022-10-14T13:12:42.000Z,96342.78
2022-10-14T13:15:57.139Z,96347.38
2022-10-14T13:18:37.510Z,96350.38
2022-10-14T13:21:06.779Z,96342.81
2022-10-14T13:23:40.846Z,96334.44
2022-10-14T13:26:24.102Z,96352.50
2022-10-14T13:29:04.401Z,96353.59
2022-10-14T13:31:40.606Z,96349.56
2022-10-14T13:34:18.540Z,96359.00
2022-10-14T13:37:01.950Z,96351.16
2022-10-14T13:39:32.346Z,96349.31
2022-10-14T13:42:00.354Z,96364.16
2022-10-14T13:44:28.693Z,96363.88
2022-10-14T13:46:56.570Z,96370.63
2022-10-14T13:49:34.572Z,96372.50
2022-10-14T13:52:05.983Z,96371.94
2022-10-14T13:54:33.888Z,96363.84
2022-10-14T14:02:42.984Z,96354.69
2022-10-14T14:05:17.149Z,96371.94
2022-10-14T14:10:39.085Z,96362.50
2022-10-14T14:13:15.137Z,96367.09
2022-10-14T14:15:43.547Z,96373.28
2022-10-14T14:18:33.883Z,96391.13
2022-10-14T14:21:13.957Z,96387.34
2022-10-14T14:23:50.539Z,96385.44
2022-10-14T14:26:19.668Z,96401.09
2022-10-14T14:28:49.069Z,96390.31
2022-10-14T14:31:20.696Z,96357.09
2022-10-14T14:33:49.019Z,96381.66
2022-10-14T14:36:27.799Z,96343.63
2022-10-14T14:39:07.752Z,96364.13
2022-10-14T14:41:35.565Z,96359.00
2022-10-14T14:44:25.675Z,96385.75
2022-10-14T14:46:56.054Z,96355.22
2022-10-14T14:49:28.421Z,96360.88
2022-10-14T14:51:58.777Z,96363.31
2022-10-14T14:54:28.679Z,96376.81
2022-10-14T14:57:03.340Z,96378.16
2022-10-14T14:59:35.402Z,96371.41
2022-10-14T15:02:04.114Z,96379.22
2022-10-14T15:04:34.819Z,96375.19
2022-10-14T15:07:07.097Z,96371.66
2022-10-14T15:09:37.977Z,96375.16
2022-10-14T15:12:13.528Z,96366.00
2022-10-14T15:14:46.991Z,96370.03
2022-10-14T15:17:27.152Z,96360.88
2022-10-14T15:19:55.233Z,96344.94
2022-10-14T15:22:36.389Z,96358.44
2022-10-14T15:25:12.761Z,96360.59
2022-10-14T15:27:54.800Z,96361.38
2022-10-14T15:30:31.594Z,96352.50
2022-10-14T15:33:01.223Z,96364.34
2022-10-14T15:35:29.906Z,96357.34
2022-10-14T15:37:58.970Z,96351.94
2022-10-14T15:40:30.427Z,96344.94
2022-10-14T15:42:58.766Z,96338.44
2022-10-14T15:45:27.203Z,96344.94
2022-10-14T15:50:30.049Z,96351.38
2022-10-14T15:52:59.134Z,96338.97
2022-10-14T15:55:29.655Z,96342.75
2022-10-14T15:57:57.462Z,96335.72
2022-10-14T16:00:26.049Z,96327.00
2022-10-14T16:02:58.305Z,96348.63
2022-10-14T16:05:26.942Z,96351.34
2022-10-14T16:07:54.953Z,96330.25
2022-10-14T16:10:28.219Z,96353.25
2022-10-14T16:12:58.364Z,96355.13
2022-10-14T16:15:34.813Z,96356.97
2022-10-14T16:18:02.870Z,96357.72
2022-10-14T16:20:31.824Z,96348.03
2022-10-14T16:22:59.872Z,96351.88
2022-10-14T16:25:33.536Z,96341.63
2022-10-14T16:28:01.414Z,96348.31
2022-10-14T16:30:29.139Z,96341.53
2022-10-14T16:32:56.899Z,96343.16
2022-10-14T16:35:24.574Z,96337.22
2022-10-14T16:37:53.029Z,96331.56
2022-10-14T16:40:20.750Z,96327.78
2022-10-14T16:42:49.943Z,96316.47
2022-10-14T16:45:18.237Z,96319.44
2022-10-14T16:47:45.943Z,96323.72
2022-10-14T16:50:13.948Z,96306.72
2022-10-14T16:53:02.145Z,96327.50
2022-10-14T16:55:32.824Z,96323.22
2022-10-14T16:58:02.074Z,96319.41
2022-10-14T17:00:29.831Z,96315.63
2022-10-14T17:02:57.524Z,96312.94
2022-10-14T17:05:25.395Z,96319.41
2022-10-14T17:07:53.726Z,96309.44
2022-10-14T17:10:22.475Z,96310.25
2022-10-14T17:12:50.166Z,96311.00
2022-10-14T17:15:19.446Z,96315.31
2022-10-14T17:17:47.125Z,96316.66
2022-10-14T17:20:14.808Z,96307.50
2022-10-14T17:22:42.906Z,96301.84
2022-10-14T17:25:10.874Z,96313.16
2022-10-14T17:27:38.613Z,96312.31
2022-10-14T17:30:07.666Z,96296.72
2022-10-14T17:32:37.142Z,96313.94
2022-10-14T17:35:05.446Z,96314.50
2022-10-14T17:37:33.126Z,96308.03
2022-10-14T17:40:00.798Z,96305.91
2022-10-14T17:42:28.481Z,96305.91
2022-10-14T17:44:56.209Z,96311.31
2022-10-14T17:47:24.444Z,96297.34
2022-10-14T17:49:54.051Z,96294.66
2022-10-14T17:52:21.758Z,96292.22
2022-10-14T17:54:49.422Z,96301.59
2022-10-14T17:57:17.086Z,96295.13
2022-10-14T17:59:44.832Z,96302.72
2022-10-14T18:02:18.084Z,96294.91
2022-10-14T18:04:45.865Z,96298.94
2022-10-14T18:07:15.262Z,96293.03
2022-10-14T18:09:43.491Z,96292.75
2022-10-14T18:12:11.217Z,96298.41
2022-10-14T18:14:39.532Z,96293.84
2022-10-14T18:17:07.274Z,96300.53
2022-10-14T18:19:35.049Z,96302.16
2022-10-14T18:22:03.134Z,96291.38
2022-10-14T18:24:32.356Z,96302.13
2022-10-14T18:27:00.516Z,96293.28
2022-10-14T18:29:28.198Z,96289.75
2022-10-14T18:31:55.858Z,96286.53
2022-10-14T18:34:25.376Z,96296.19
2022-10-14T18:36:53.098Z,96290.53
2022-10-14T18:39:21.207Z,96295.38
2022-10-14T18:41:50.288Z,96291.34
2022-10-14T18:44:18.186Z,96290.50
2022-10-14T18:46:47.467Z,96291.28
2022-10-14T18:49:15.233Z,96293.97
2022-10-14T18:51:43.345Z,96297.19
2022-10-14T18:54:15.040Z,96285.06
2022-10-14T18:56:44.427Z,96285.31
2022-10-14T18:59:15.869Z,96259.16
2022-10-14T19:01:43.671Z,96287.72
2022-10-14T19:04:14.207Z,96276.16
2022-10-14T19:06:44.892Z,96273.97
2022-10-14T19:09:13.722Z,96272.63
2022-10-14T19:11:42.406Z,96269.16
2022-10-14T19:14:10.816Z,96249.66
2022-10-14T19:16:39.951Z,96287.41
2022-10-14T19:19:11.652Z,96286.88
2022-10-14T19:21:39.732Z,96278.28
2022-10-14T19:24:09.099Z,96282.59
2022-10-14T19:26:38.614Z,96276.41
2022-10-14T19:29:10.602Z,96273.41
2022-10-14T19:31:40.976Z,96284.66
2022-10-14T19:34:11.312Z,96281.22
2022-10-14T19:36:40.638Z,96266.84
2022-10-14T19:39:10.179Z,96286.56
2022-10-14T19:41:43.097Z,96279.28
2022-10-14T19:44:12.565Z,96284.09
2022-10-14T19:46:42.358Z,96278.75
2022-10-14T19:49:12.448Z,96282.47
2022-10-14T19:51:40.237Z,96273.63
2022-10-14T19:54:08.015Z,96269.06
2022-10-14T19:56:35.696Z,96268.78
2022-10-14T19:59:03.411Z,96261.47
2022-10-14T20:01:31.761Z,96264.69
2022-10-14T20:04:03.158Z,96265.81
2022-10-14T20:06:33.683Z,96271.41
2022-10-14T20:09:01.487Z,96274.91
2022-10-14T20:11:29.500Z,96271.16
2022-10-14T20:13:58.852Z,96267.38
2022-10-14T20:16:27.431Z,96270.09
2022-10-14T20:18:55.649Z,96266.84
2022-10-14T20:21:24.774Z,96270.66
2022-10-14T20:23:52.553Z,96273.34
2022-10-14T20:26:22.220Z,96262.81
2022-10-14T20:28:50.466Z,96259.88
2022-10-14T20:31:20.607Z,96255.03
2022-10-14T20:33:48.546Z,96242.66
2022-10-14T20:36:18.769Z,96252.03
2022-10-14T20:38:48.463Z,96239.41
2022-10-14T20:41:17.687Z,96240.78
2022-10-14T20:43:47.315Z,96236.22
2022-10-14T20:46:15.715Z,96248.03
2022-10-14T20:48:43.517Z,96239.16
2022-10-14T20:51:13.709Z,96230.81
2022-10-14T20:56:16.001Z,96232.16
2022-10-14T20:58:44.071Z,96242.09
2022-10-14T21:01:14.262Z,96236.19
2022-10-14T21:03:43.238Z,96223.75
2022-10-14T21:06:13.982Z,96229.69
2022-10-14T21:08:42.669Z,96232.41
2022-10-14T21:11:15.346Z,96175.69
2022-10-14T21:13:46.511Z,96214.88
2022-10-14T21:16:15.857Z,96223.50
2022-10-14T21:18:46.723Z,96221.38
2022-10-14T21:21:16.792Z,96212.47
2022-10-14T21:23:45.086Z,96209.19
2022-10-14T21:26:12.835Z,96217.59
2022-10-14T21:28:40.630Z,96222.16
2022-10-14T21:31:12.153Z,96219.44
2022-10-14T21:33:41.514Z,96221.06
2022-10-14T21:36:12.351Z,96215.16
2022-10-14T21:38:41.108Z,96225.94
2022-10-14T21:41:09.778Z,96218.16
2022-10-14T21:43:38.928Z,96210.91
2022-10-14T21:46:08.760Z,96206.59
2022-10-14T21:48:37.893Z,96205.50
2022-10-14T21:51:07.264Z,96206.03
2022-10-14T21:53:35.822Z,96215.72
2022-10-14T21:56:03.534Z,96196.91
2022-10-14T21:58:31.594Z,96197.47
2022-10-14T22:01:03.742Z,96191.00
2022-10-14T22:03:31.488Z,96193.41
2022-10-14T22:06:01.342Z,96187.78
2022-10-14T22:08:33.359Z,96188.81
2022-10-14T22:11:01.020Z,96178.53
2022-10-14T22:13:29.460Z,96194.19
2022-10-14T22:15:57.840Z,96191.81
2022-10-14T22:18:25.671Z,96189.03
2022-10-14T22:21:03.834Z,96184.78
2022-10-14T22:23:31.862Z,96183.41
2022-10-14T22:26:01.006Z,96178.34
2022-10-14T22:28:29.115Z,96179.94
2022-10-14T22:30:57.717Z,96175.06
2022-10-14T22:33:25.406Z,96176.72
2022-10-14T22:35:53.110Z,96172.41
2022-10-14T22:38:22.150Z,96169.97
2022-10-14T22:40:49.958Z,96174.28
2022-10-14T22:43:17.657Z,96162.69
2022-10-14T22:45:45.355Z,96164.88
2022-10-14T22:48:13.078Z,96169.44
2022-10-14T22:50:40.729Z,96144.66
2022-10-14T22:53:10.205Z,96147.41
2022-10-14T22:55:39.249Z,96145.25
2022-10-14T22:58:06.924Z,96156.53
2022-10-14T23:00:35.182Z,96155.41
2022-10-14T23:03:02.925Z,96159.22
2022-10-14T23:05:30.963Z,96161.09
2022-10-14T23:07:58.627Z,96134.38
2022-10-14T23:10:26.323Z,96162.72
2022-10-14T23:12:55.338Z,96159.22
2022-10-14T23:15:22.989Z,96147.41
2022-10-14T23:17:50.806Z,96133.03
2022-10-14T23:20:18.685Z,96146.34
2022-10-14T23:22:46.571Z,96152.22
2022-10-14T23:25:14.404Z,96145.44
2022-10-14T23:27:42.087Z,96150.34
2022-10-14T23:30:12.043Z,96147.09
2022-10-14T23:32:39.743Z,96148.69
2022-10-14T23:35:07.984Z,96136.06
2022-10-14T23:37:35.657Z,96146.25
2022-10-14T23:40:04.744Z,96129.53
2022-10-14T23:42:32.405Z,96145.16
2022-10-14T23:45:00.090Z,96143.53
2022-10-14T23:47:29.126Z,96145.16
2022-10-14T23:49:56.790Z,96139.53
2022-10-14T23:52:24.485Z,96144.88
2022-10-14T23:54:52.239Z,96157.53
2022-10-14T23:57:20.321Z,96139.22
2022-10-14T23:59:48.283Z,96151.06
